sensor_id;sensor_type;location;lat;lon;timestamp;pressure;altitude;pressure_sealevel;temperature;humidity
37710;BME280;60223;34.854;-92.408;2022-11-30T00:00:41;99445.13;;;23.64;27.93
37710;BME280;60223;34.854;-92.408;2022-11-30T00:03:07;99446.35;;;23.50;27.98
37710;BME280;60223;34.854;-92.408;2022-11-30T00:05:32;99445.43;;;23.73;28.02
37710;BME280;60223;34.854;-92.408;2022-11-30T00:07:59;99440.62;;;23.93;28.02
37710;BME280;60223;34.854;-92.408;2022-11-30T00:10:22;99438.67;;;23.64;27.89
37710;BME280;60223;34.854;-92.408;2022-11-30T00:12:47;99434.87;;;23.97;28.11
37710;BME280;60223;34.854;-92.408;2022-11-30T00:15:14;99436.99;;;23.69;27.90
37710;BME280;60223;34.854;-92.408;2022-11-30T00:17:38;99438.71;;;23.84;27.94
37710;BME280;60223;34.854;-92.408;2022-11-30T00:20:04;99438.14;;;23.99;28.08
37710;BME280;60223;34.854;-92.408;2022-11-30T00:22:29;99442.21;;;23.39;28.15
37710;BME280;60223;34.854;-92.408;2022-11-30T00:24:54;99445.63;;;23.08;28.84
37710;BME280;60223;34.854;-92.408;2022-11-30T00:27:20;99449.35;;;24.92;27.04
37710;BME280;60223;34.854;-92.408;2022-11-30T00:46:44;99497.41;;;23.61;28.15
37710;BME280;60223;34.854;-92.408;2022-11-30T00:49:10;99495.29;;;24.09;28.15
37710;BME280;60223;34.854;-92.408;2022-11-30T00:51:34;99493.43;;;23.50;28.23
37710;BME280;60223;34.854;-92.408;2022-11-30T00:54:00;99495.35;;;23.50;28.25
37710;BME280;60223;34.854;-92.408;2022-11-30T00:56:26;99498.67;;;24.09;28.13
37710;BME280;60223;34.854;-92.408;2022-11-30T00:58:51;99503.30;;;23.66;28.34
37710;BME280;60223;34.854;-92.408;2022-11-30T01:01:17;99505.84;;;23.33;28.35
37710;BME280;60223;34.854;-92.408;2022-11-30T01:03:42;99506.93;;;23.70;28.22
37710;BME280;60223;34.854;-92.408;2022-11-30T01:06:08;99504.82;;;24.02;28.11
37710;BME280;60223;34.854;-92.408;2022-11-30T01:08:33;99508.51;;;23.48;28.10
37710;BME280;60223;34.854;-92.408;2022-11-30T01:11:03;99518.54;;;23.74;28.06
37710;BME280;60223;34.854;-92.408;2022-11-30T01:13:24;99525.94;;;23.54;28.00
37710;BME280;60223;34.854;-92.408;2022-11-30T01:15:49;99539.91;;;24.04;27.95
37710;BME280;60223;34.854;-92.408;2022-11-30T01:18:15;99549.25;;;24.01;27.96
37710;BME280;60223;34.854;-92.408;2022-11-30T01:20:42;99562.11;;;24.66;27.39
37710;BME280;60223;34.854;-92.408;2022-11-30T01:23:06;99565.83;;;23.96;28.01
37710;BME280;60223;34.854;-92.408;2022-11-30T01:25:31;99568.10;;;24.12;27.89
37710;BME280;60223;34.854;-92.408;2022-11-30T01:27:55;99575.21;;;23.83;28.13
37710;BME280;60223;34.854;-92.408;2022-11-30T01:30:22;99580.10;;;23.62;28.19
37710;BME280;60223;34.854;-92.408;2022-11-30T01:32:47;99578.60;;;24.46;27.65
37710;BME280;60223;34.854;-92.408;2022-11-30T01:35:13;99583.02;;;24.03;27.91
37710;BME280;60223;34.854;-92.408;2022-11-30T01:37:38;99585.85;;;23.59;28.17
37710;BME280;60223;34.854;-92.408;2022-11-30T01:40:04;99588.07;;;24.00;28.02
37710;BME280;60223;34.854;-92.408;2022-11-30T01:42:29;99594.87;;;24.12;28.17
37710;BME280;60223;34.854;-92.408;2022-11-30T01:44:55;99597.83;;;24.07;28.13
37710;BME280;60223;34.854;-92.408;2022-11-30T01:47:21;99595.21;;;23.73;28.06
37710;BME280;60223;34.854;-92.408;2022-11-30T01:49:47;99600.67;;;24.23;28.04
37710;BME280;60223;34.854;-92.408;2022-11-30T01:52:12;99607.49;;;23.77;28.02
37710;BME280;60223;34.854;-92.408;2022-11-30T01:54:37;99610.99;;;23.99;28.00
37710;BME280;60223;34.854;-92.408;2022-11-30T01:57:03;99616.06;;;24.09;28.10
37710;BME280;60223;34.854;-92.408;2022-11-30T01:59:28;99623.42;;;23.58;28.12
37710;BME280;60223;34.854;-92.408;2022-11-30T02:01:51;99628.64;;;23.87;28.07
37710;BME280;60223;34.854;-92.408;2022-11-30T02:04:21;99632.00;;;23.74;27.92
37710;BME280;60223;34.854;-92.408;2022-11-30T02:06:42;99631.98;;;24.26;27.87
37710;BME280;60223;34.854;-92.408;2022-11-30T02:09:07;99631.83;;;23.81;27.81
37710;BME280;60223;34.854;-92.408;2022-11-30T02:11:34;99637.57;;;24.40;27.68
37710;BME280;60223;34.854;-92.408;2022-11-30T02:14:10;99638.27;;;24.22;27.58
37710;BME280;60223;34.854;-92.408;2022-11-30T02:16:29;99641.92;;;24.16;27.60
37710;BME280;60223;34.854;-92.408;2022-11-30T02:18:54;99647.00;;;22.74;29.36
37710;BME280;60223;34.854;-92.408;2022-11-30T02:21:17;99646.48;;;25.02;27.15
37710;BME280;60223;34.854;-92.408;2022-11-30T02:23:54;99652.47;;;23.96;28.11
37710;BME280;60223;34.854;-92.408;2022-11-30T02:26:14;99657.55;;;24.39;27.72
37710;BME280;60223;34.854;-92.408;2022-11-30T02:28:43;99661.30;;;23.93;27.68
37710;BME280;60223;34.854;-92.408;2022-11-30T02:30:56;99664.42;;;24.16;27.95
37710;BME280;60223;34.854;-92.408;2022-11-30T02:33:25;99671.30;;;24.00;27.81
37710;BME280;60223;34.854;-92.408;2022-11-30T02:35:50;99677.31;;;24.06;28.05
37710;BME280;60223;34.854;-92.408;2022-11-30T02:38:13;99682.46;;;24.22;27.91
37710;BME280;60223;34.854;-92.408;2022-11-30T02:40:37;99691.70;;;24.14;28.00
37710;BME280;60223;34.854;-92.408;2022-11-30T02:43:05;99699.59;;;24.46;27.91
37710;BME280;60223;34.854;-92.408;2022-11-30T02:45:33;99699.42;;;24.37;28.06
37710;BME280;60223;34.854;-92.408;2022-11-30T02:47:58;99709.57;;;23.92;28.03
37710;BME280;60223;34.854;-92.408;2022-11-30T02:50:21;99714.70;;;24.02;28.15
37710;BME280;60223;34.854;-92.408;2022-11-30T02:52:45;99720.72;;;23.70;28.22
37710;BME280;60223;34.854;-92.408;2022-11-30T02:55:14;99718.40;;;23.75;28.16
37710;BME280;60223;34.854;-92.408;2022-11-30T02:57:35;99714.04;;;24.06;28.08
37710;BME280;60223;34.854;-92.408;2022-11-30T03:00:03;99719.99;;;24.17;27.97
37710;BME280;60223;34.854;-92.408;2022-11-30T03:02:27;99720.91;;;24.51;27.86
37710;BME280;60223;34.854;-92.408;2022-11-30T03:04:51;99722.36;;;24.26;27.86
37710;BME280;60223;34.854;-92.408;2022-11-30T03:07:17;99720.96;;;24.20;27.85
37710;BME280;60223;34.854;-92.408;2022-11-30T03:09:40;99730.76;;;24.07;27.77
37710;BME280;60223;34.854;-92.408;2022-11-30T03:12:06;99742.18;;;24.33;27.71
37710;BME280;60223;34.854;-92.408;2022-11-30T03:14:33;99749.30;;;24.61;27.65
37710;BME280;60223;34.854;-92.408;2022-11-30T03:16:59;99759.31;;;24.52;27.71
37710;BME280;60223;34.854;-92.408;2022-11-30T03:19:24;99761.99;;;24.60;27.61
37710;BME280;60223;34.854;-92.408;2022-11-30T03:21:49;99779.82;;;23.69;28.63
37710;BME280;60223;34.854;-92.408;2022-11-30T03:24:14;99780.83;;;25.33;27.19
37710;BME280;60223;34.854;-92.408;2022-11-30T03:26:40;99785.31;;;24.41;27.85
37710;BME280;60223;34.854;-92.408;2022-11-30T03:29:06;99796.50;;;24.04;27.97
37710;BME280;60223;34.854;-92.408;2022-11-30T03:31:30;99807.40;;;24.98;27.38
37710;BME280;60223;34.854;-92.408;2022-11-30T03:33:56;99816.33;;;24.24;28.12
37710;BME280;60223;34.854;-92.408;2022-11-30T03:36:21;99826.71;;;24.53;27.91
37710;BME280;60223;34.854;-92.408;2022-11-30T03:38:46;99838.43;;;23.84;28.13
37710;BME280;60223;34.854;-92.408;2022-11-30T03:41:14;99845.37;;;24.19;28.09
37710;BME280;60223;34.854;-92.408;2022-11-30T03:43:36;99857.81;;;24.46;28.04
37710;BME280;60223;34.854;-92.408;2022-11-30T03:46:01;99865.90;;;23.91;28.16
37710;BME280;60223;34.854;-92.408;2022-11-30T03:48:28;99872.47;;;23.97;28.11
37710;BME280;60223;34.854;-92.408;2022-11-30T03:50:52;99887.02;;;23.94;28.14
37710;BME280;60223;34.854;-92.408;2022-11-30T03:53:18;99894.16;;;24.05;28.01
37710;BME280;60223;34.854;-92.408;2022-11-30T03:55:42;99899.82;;;24.25;28.06
37710;BME280;60223;34.854;-92.408;2022-11-30T03:58:08;99905.37;;;24.50;28.06
37710;BME280;60223;34.854;-92.408;2022-11-30T04:00:34;99919.24;;;24.26;28.04
37710;BME280;60223;34.854;-92.408;2022-11-30T04:02:59;99934.01;;;24.32;27.96
37710;BME280;60223;34.854;-92.408;2022-11-30T04:05:25;99934.24;;;24.32;27.94
37710;BME280;60223;34.854;-92.408;2022-11-30T04:07:50;99950.54;;;24.38;27.82
37710;BME280;60223;34.854;-92.408;2022-11-30T04:10:16;99959.65;;;24.30;27.85
37710;BME280;60223;34.854;-92.408;2022-11-30T04:12:41;99974.81;;;24.66;27.73
37710;BME280;60223;34.854;-92.408;2022-11-30T04:15:08;99979.41;;;24.35;27.70
37710;BME280;60223;34.854;-92.408;2022-11-30T04:17:32;99997.52;;;24.00;27.79
37710;BME280;60223;34.854;-92.408;2022-11-30T04:19:57;100000.10;;;24.17;27.87
37710;BME280;60223;34.854;-92.408;2022-11-30T04:22:22;100011.97;;;24.47;27.79
37710;BME280;60223;34.854;-92.408;2022-11-30T04:24:48;100033.79;;;23.45;28.99
37710;BME280;60223;34.854;-92.408;2022-11-30T04:27:13;100037.47;;;24.14;28.02
37710;BME280;60223;34.854;-92.408;2022-11-30T04:29:39;100051.50;;;24.03;28.07
37710;BME280;60223;34.854;-92.408;2022-11-30T04:32:05;100055.56;;;24.11;27.98
37710;BME280;60223;34.854;-92.408;2022-11-30T04:34:31;100068.21;;;24.19;28.15
37710;BME280;60223;34.854;-92.408;2022-11-30T04:36:56;100072.08;;;23.95;28.13
37710;BME280;60223;34.854;-92.408;2022-11-30T04:39:21;100074.81;;;23.79;28.20
37710;BME280;60223;34.854;-92.408;2022-11-30T04:41:47;100107.77;;;24.49;28.01
37710;BME280;60223;34.854;-92.408;2022-11-30T04:44:13;100127.06;;;24.11;28.19
37710;BME280;60223;34.854;-92.408;2022-11-30T04:46:39;100134.60;;;23.96;28.08
37710;BME280;60223;34.854;-92.408;2022-11-30T04:49:04;100149.11;;;24.48;28.08
37710;BME280;60223;34.854;-92.408;2022-11-30T04:51:30;100160.39;;;24.09;28.26
37710;BME280;60223;34.854;-92.408;2022-11-30T04:53:57;100169.57;;;24.27;28.06
37710;BME280;60223;34.854;-92.408;2022-11-30T04:56:19;100178.52;;;23.89;28.24
37710;BME280;60223;34.854;-92.408;2022-11-30T04:58:45;100187.20;;;24.34;28.22
37710;BME280;60223;34.854;-92.408;2022-11-30T05:01:11;100194.64;;;23.90;28.16
37710;BME280;60223;34.854;-92.408;2022-11-30T05:03:36;100203.92;;;23.90;28.14
37710;BME280;60223;34.854;-92.408;2022-11-30T05:06:02;100219.14;;;24.07;28.20
37710;BME280;60223;34.854;-92.408;2022-11-30T05:08:28;100227.84;;;24.16;28.09
37710;BME280;60223;34.854;-92.408;2022-11-30T05:10:55;100230.16;;;24.24;27.95
37710;BME280;60223;34.854;-92.408;2022-11-30T05:13:18;100238.94;;;24.43;27.96
37710;BME280;60223;34.854;-92.408;2022-11-30T05:15:44;100249.10;;;24.17;27.93
37710;BME280;60223;34.854;-92.408;2022-11-30T05:18:09;100255.86;;;24.58;27.71
37710;BME280;60223;34.854;-92.408;2022-11-30T05:20:34;100268.04;;;23.90;27.87
37710;BME280;60223;34.854;-92.408;2022-11-30T05:23:00;100286.55;;;24.59;27.65
37710;BME280;60223;34.854;-92.408;2022-11-30T05:25:24;100291.39;;;23.71;28.59
37710;BME280;60223;34.854;-92.408;2022-11-30T05:27:50;100295.57;;;25.09;27.48
37710;BME280;60223;34.854;-92.408;2022-11-30T05:30:16;100304.10;;;24.27;28.01
37710;BME280;60223;34.854;-92.408;2022-11-30T05:32:40;100316.88;;;24.14;28.13
37710;BME280;60223;34.854;-92.408;2022-11-30T05:35:06;100314.72;;;23.96;28.07
37710;BME280;60223;34.854;-92.408;2022-11-30T05:37:30;100327.47;;;23.90;28.40
37710;BME280;60223;34.854;-92.408;2022-11-30T05:39:55;100342.14;;;23.78;28.13
37710;BME280;60223;34.854;-92.408;2022-11-30T05:42:21;100335.43;;;24.27;28.12
37710;BME280;60223;34.854;-92.408;2022-11-30T05:44:46;100366.64;;;24.12;28.30
37710;BME280;60223;34.854;-92.408;2022-11-30T05:47:12;100375.39;;;23.87;28.32
37710;BME280;60223;34.854;-92.408;2022-11-30T05:49:37;100389.81;;;24.00;28.16
37710;BME280;60223;34.854;-92.408;2022-11-30T05:52:02;100397.26;;;24.19;28.20
37710;BME280;60223;34.854;-92.408;2022-11-30T05:54:28;100410.35;;;23.85;28.30
37710;BME280;60223;34.854;-92.408;2022-11-30T05:56:54;100418.02;;;23.69;28.25
37710;BME280;60223;34.854;-92.408;2022-11-30T05:59:19;100428.28;;;23.77;28.15
37710;BME280;60223;34.854;-92.408;2022-11-30T06:01:44;100429.26;;;23.97;28.17
37710;BME280;60223;34.854;-92.408;2022-11-30T06:04:10;100436.89;;;24.02;28.10
37710;BME280;60223;34.854;-92.408;2022-11-30T06:06:35;100431.34;;;24.11;27.94
37710;BME280;60223;34.854;-92.408;2022-11-30T06:09:01;100452.87;;;23.83;27.98
37710;BME280;60223;34.854;-92.408;2022-11-30T06:11:26;100442.92;;;24.36;27.94
37710;BME280;60223;34.854;-92.408;2022-11-30T06:13:52;100460.38;;;24.16;27.84
37710;BME280;60223;34.854;-92.408;2022-11-30T06:16:18;100461.67;;;24.19;27.75
37710;BME280;60223;34.854;-92.408;2022-11-30T06:18:43;100484.21;;;24.08;27.78
37710;BME280;60223;34.854;-92.408;2022-11-30T06:21:11;100487.97;;;23.59;28.26
37710;BME280;60223;34.854;-92.408;2022-11-30T06:23:35;100497.56;;;23.31;28.92
37710;BME280;60223;34.854;-92.408;2022-11-30T06:26:02;100504.27;;;24.89;27.30
37710;BME280;60223;34.854;-92.408;2022-11-30T06:28:25;100520.81;;;24.03;28.06
37710;BME280;60223;34.854;-92.408;2022-11-30T06:30:51;100527.36;;;24.25;27.86
37710;BME280;60223;34.854;-92.408;2022-11-30T06:33:20;100522.82;;;24.03;28.08
37710;BME280;60223;34.854;-92.408;2022-11-30T06:35:46;100527.38;;;23.73;28.34
37710;BME280;60223;34.854;-92.408;2022-11-30T06:38:07;100544.78;;;24.23;27.90
37710;BME280;60223;34.854;-92.408;2022-11-30T06:40:33;100557.55;;;24.26;27.93
37710;BME280;60223;34.854;-92.408;2022-11-30T06:42:58;100553.59;;;24.02;28.14
37710;BME280;60223;34.854;-92.408;2022-11-30T06:45:23;100562.49;;;23.83;28.12
37710;BME280;60223;34.854;-92.408;2022-11-30T06:47:49;100565.93;;;24.00;28.16
37710;BME280;60223;34.854;-92.408;2022-11-30T06:50:14;100581.03;;;23.82;28.09
37710;BME280;60223;34.854;-92.408;2022-11-30T06:52:39;100578.97;;;24.15;27.98
37710;BME280;60223;34.854;-92.408;2022-11-30T06:55:05;100589.12;;;24.06;28.05
37710;BME280;60223;34.854;-92.408;2022-11-30T06:57:30;100590.93;;;23.71;27.89
37710;BME280;60223;34.854;-92.408;2022-11-30T06:59:56;100592.44;;;23.74;27.85
37710;BME280;60223;34.854;-92.408;2022-11-30T07:02:21;100604.86;;;23.90;27.69
37710;BME280;60223;34.854;-92.408;2022-11-30T07:04:46;100607.50;;;24.28;27.47
37710;BME280;60223;34.854;-92.408;2022-11-30T07:07:12;100606.69;;;24.08;27.61
37710;BME280;60223;34.854;-92.408;2022-11-30T07:09:38;100617.06;;;24.41;27.52
37710;BME280;60223;34.854;-92.408;2022-11-30T07:12:03;100633.42;;;23.89;27.51
37710;BME280;60223;34.854;-92.408;2022-11-30T07:14:29;100635.82;;;23.86;27.71
37710;BME280;60223;34.854;-92.408;2022-11-30T07:16:55;100647.66;;;23.64;28.18
37710;BME280;60223;34.854;-92.408;2022-11-30T07:19:20;100647.89;;;22.58;29.34
37710;BME280;60223;34.854;-92.408;2022-11-30T07:21:46;100663.76;;;24.70;27.44
37710;BME280;60223;34.854;-92.408;2022-11-30T07:24:11;100666.15;;;24.43;27.38
37710;BME280;60223;34.854;-92.408;2022-11-30T07:26:36;100686.49;;;23.77;27.81
37710;BME280;60223;34.854;-92.408;2022-11-30T07:29:01;100700.81;;;23.85;28.00
37710;BME280;60223;34.854;-92.408;2022-11-30T07:31:29;100715.39;;;23.11;28.23
37710;BME280;60223;34.854;-92.408;2022-11-30T07:33:53;100729.40;;;24.10;27.78
37710;BME280;60223;34.854;-92.408;2022-11-30T07:36:19;100744.64;;;24.15;27.78
37710;BME280;60223;34.854;-92.408;2022-11-30T07:38:43;100758.72;;;23.82;28.07
37710;BME280;60223;34.854;-92.408;2022-11-30T07:41:09;100772.00;;;23.99;27.90
37710;BME280;60223;34.854;-92.408;2022-11-30T07:43:34;100801.45;;;23.81;27.84
37710;BME280;60223;34.854;-92.408;2022-11-30T07:46:00;100811.48;;;24.08;27.79
37710;BME280;60223;34.854;-92.408;2022-11-30T07:48:25;100817.20;;;24.16;27.70
37710;BME280;60223;34.854;-92.408;2022-11-30T07:50:51;100825.22;;;24.17;27.64
37710;BME280;60223;34.854;-92.408;2022-11-30T07:53:16;100837.94;;;24.37;27.43
37710;BME280;60223;34.854;-92.408;2022-11-30T07:55:41;100841.38;;;24.01;27.31
37710;BME280;60223;34.854;-92.408;2022-11-30T07:58:07;100840.46;;;24.27;27.25
37710;BME280;60223;34.854;-92.408;2022-11-30T08:00:32;100849.79;;;24.47;27.25
37710;BME280;60223;34.854;-92.408;2022-11-30T08:02:57;100861.36;;;24.27;27.41
37710;BME280;60223;34.854;-92.408;2022-11-30T08:05:22;100865.03;;;23.92;27.52
37710;BME280;60223;34.854;-92.408;2022-11-30T08:07:49;100873.62;;;23.91;27.67
37710;BME280;60223;34.854;-92.408;2022-11-30T08:10:13;100890.15;;;23.61;27.93
37710;BME280;60223;34.854;-92.408;2022-11-30T08:12:38;100894.52;;;22.78;29.09
37710;BME280;60223;34.854;-92.408;2022-11-30T08:15:04;100898.65;;;24.50;27.10
37710;BME280;60223;34.854;-92.408;2022-11-30T08:17:29;100905.52;;;23.68;27.93
37710;BME280;60223;34.854;-92.408;2022-11-30T08:20:18;100909.62;;;23.66;27.97
37710;BME280;60223;34.854;-92.408;2022-11-30T08:22:20;100913.86;;;23.61;28.00
37710;BME280;60223;34.854;-92.408;2022-11-30T08:24:45;100918.35;;;23.65;27.96
37710;BME280;60223;34.854;-92.408;2022-11-30T08:27:11;100925.77;;;23.99;27.66
37710;BME280;60223;34.854;-92.408;2022-11-30T08:29:36;100929.67;;;23.60;27.80
37710;BME280;60223;34.854;-92.408;2022-11-30T08:32:02;100936.76;;;23.92;27.69
37710;BME280;60223;34.854;-92.408;2022-11-30T08:34:28;100946.68;;;23.91;27.71
37710;BME280;60223;34.854;-92.408;2022-11-30T08:36:53;100965.10;;;24.14;27.49
37710;BME280;60223;34.854;-92.408;2022-11-30T08:39:19;100965.68;;;24.10;27.48
37710;BME280;60223;34.854;-92.408;2022-11-30T08:41:44;100983.97;;;24.21;27.36
37710;BME280;60223;34.854;-92.408;2022-11-30T08:44:10;100982.72;;;24.54;26.99
37710;BME280;60223;34.854;-92.408;2022-11-30T08:46:35;100983.68;;;24.40;26.89
37710;BME280;60223;34.854;-92.408;2022-11-30T08:49:00;100997.41;;;24.39;27.08
37710;BME280;60223;34.854;-92.408;2022-11-30T08:51:26;101004.16;;;24.46;26.96
37710;BME280;60223;34.854;-92.408;2022-11-30T08:53:51;101015.63;;;23.90;26.99
37710;BME280;60223;34.854;-92.408;2022-11-30T08:56:19;101031.34;;;24.06;27.26
37710;BME280;60223;34.854;-92.408;2022-11-30T08:58:42;101032.71;;;23.62;27.64
37710;BME280;60223;34.854;-92.408;2022-11-30T09:01:11;101037.67;;;22.18;29.16
37710;BME280;60223;34.854;-92.408;2022-11-30T09:03:34;101037.00;;;24.08;27.26
37710;BME280;60223;34.854;-92.408;2022-11-30T09:06:05;101039.64;;;24.05;27.49
37710;BME280;60223;34.854;-92.408;2022-11-30T09:08:24;101037.33;;;23.69;27.61
37710;BME280;60223;34.854;-92.408;2022-11-30T09:10:50;101045.97;;;22.99;28.11
37710;BME280;60223;34.854;-92.408;2022-11-30T09:13:15;101057.42;;;23.22;28.08
37710;BME280;60223;34.854;-92.408;2022-11-30T09:15:41;101062.25;;;23.78;27.58
37710;BME280;60223;34.854;-92.408;2022-11-30T09:18:07;101067.84;;;24.00;27.35
37710;BME280;60223;34.854;-92.408;2022-11-30T09:20:32;101067.51;;;24.16;27.42
37710;BME280;60223;34.854;-92.408;2022-11-30T09:22:58;101066.10;;;23.94;27.37
37710;BME280;60223;34.854;-92.408;2022-11-30T09:25:22;101080.97;;;23.87;27.21
37710;BME280;60223;34.854;-92.408;2022-11-30T09:27:48;101094.78;;;24.27;27.02
37710;BME280;60223;34.854;-92.408;2022-11-30T09:30:14;101102.19;;;24.13;26.90
37710;BME280;60223;34.854;-92.408;2022-11-30T09:32:38;101099.71;;;24.49;26.70
37710;BME280;60223;34.854;-92.408;2022-11-30T09:35:04;101107.84;;;24.13;26.80
37710;BME280;60223;34.854;-92.408;2022-11-30T09:37:29;101111.46;;;24.15;26.71
37710;BME280;60223;34.854;-92.408;2022-11-30T09:39:54;101112.67;;;24.27;26.82
37710;BME280;60223;34.854;-92.408;2022-11-30T09:42:41;101121.38;;;24.20;26.83
37710;BME280;60223;34.854;-92.408;2022-11-30T09:44:52;101133.05;;;23.74;27.23
37710;BME280;60223;34.854;-92.408;2022-11-30T09:47:26;101136.96;;;23.50;27.21
37710;BME280;60223;34.854;-92.408;2022-11-30T09:49:38;101149.04;;;23.49;27.49
37710;BME280;60223;34.854;-92.408;2022-11-30T09:52:06;101160.06;;;24.71;26.51
37710;BME280;60223;34.854;-92.408;2022-11-30T09:54:31;101172.54;;;23.98;27.22
37710;BME280;60223;34.854;-92.408;2022-11-30T09:56:54;101175.61;;;22.93;27.80
37710;BME280;60223;34.854;-92.408;2022-11-30T10:18:48;101206.45;;;24.29;26.60
37710;BME280;60223;34.854;-92.408;2022-11-30T10:21:17;101206.67;;;24.45;26.36
37710;BME280;60223;34.854;-92.408;2022-11-30T10:23:45;101207.51;;;24.29;26.46
37710;BME280;60223;34.854;-92.408;2022-11-30T10:26:01;101213.25;;;24.16;26.59
37710;BME280;60223;34.854;-92.408;2022-11-30T10:28:34;101212.46;;;24.16;26.53
37710;BME280;60223;34.854;-92.408;2022-11-30T10:30:51;101221.62;;;24.03;26.86
37710;BME280;60223;34.854;-92.408;2022-11-30T10:33:19;101221.99;;;22.51;28.15
37710;BME280;60223;34.854;-92.408;2022-11-30T10:35:43;101228.09;;;23.22;27.43
37710;BME280;60223;34.854;-92.408;2022-11-30T10:38:12;101217.75;;;24.07;26.51
37710;BME280;60223;34.854;-92.408;2022-11-30T10:40:36;101220.08;;;24.03;26.87
37710;BME280;60223;34.854;-92.408;2022-11-30T10:43:04;101225.63;;;23.32;27.34
37710;BME280;60223;34.854;-92.408;2022-11-30T10:45:24;101234.98;;;23.65;26.78
37710;BME280;60223;34.854;-92.408;2022-11-30T10:47:50;101240.40;;;23.69;26.98
37710;BME280;60223;34.854;-92.408;2022-11-30T10:50:17;101253.09;;;23.78;26.87
37710;BME280;60223;34.854;-92.408;2022-11-30T10:52:45;101263.80;;;23.61;26.82
37710;BME280;60223;34.854;-92.408;2022-11-30T10:55:09;101266.34;;;23.83;26.79
37710;BME280;60223;34.854;-92.408;2022-11-30T10:57:32;101271.52;;;24.08;26.55
37710;BME280;60223;34.854;-92.408;2022-11-30T10:59:58;101277.53;;;24.24;26.32
37710;BME280;60223;34.854;-92.408;2022-11-30T11:02:34;101284.55;;;24.29;26.23
37710;BME280;60223;34.854;-92.408;2022-11-30T11:04:47;101289.91;;;24.29;26.21
37710;BME280;60223;34.854;-92.408;2022-11-30T11:07:16;101295.81;;;24.33;26.11
37710;BME280;60223;34.854;-92.408;2022-11-30T11:09:39;101305.89;;;24.33;26.07
37710;BME280;60223;34.854;-92.408;2022-11-30T11:12:06;101311.94;;;24.22;26.19
37710;BME280;60223;34.854;-92.408;2022-11-30T11:14:30;101311.80;;;23.94;26.41
37710;BME280;60223;34.854;-92.408;2022-11-30T11:16:56;101312.82;;;23.60;26.64
37710;BME280;60223;34.854;-92.408;2022-11-30T11:19:29;101319.09;;;23.34;27.00
37710;BME280;60223;34.854;-92.408;2022-11-30T11:21:47;101317.59;;;24.05;26.19
37710;BME280;60223;34.854;-92.408;2022-11-30T11:24:13;101325.44;;;23.49;26.81
37710;BME280;60223;34.854;-92.408;2022-11-30T11:26:36;101327.25;;;23.07;27.23
37710;BME280;60223;34.854;-92.408;2022-11-30T11:29:02;101326.96;;;23.80;26.62
37710;BME280;60223;34.854;-92.408;2022-11-30T11:31:33;101345.85;;;23.55;26.98
37710;BME280;60223;34.854;-92.408;2022-11-30T11:33:54;101357.35;;;23.74;26.62
37710;BME280;60223;34.854;-92.408;2022-11-30T11:36:24;101370.88;;;23.66;26.66
37710;BME280;60223;34.854;-92.408;2022-11-30T11:38:45;101373.68;;;23.68;26.59
37710;BME280;60223;34.854;-92.408;2022-11-30T11:41:11;101381.52;;;23.90;26.35
37710;BME280;60223;34.854;-92.408;2022-11-30T11:43:36;101378.59;;;24.17;26.05
37710;BME280;60223;34.854;-92.408;2022-11-30T11:46:08;101390.14;;;24.27;25.92
37710;BME280;60223;34.854;-92.408;2022-11-30T11:48:32;101390.26;;;24.05;25.86
37710;BME280;60223;34.854;-92.408;2022-11-30T11:50:56;101393.61;;;24.40;25.70
37710;BME280;60223;34.854;-92.408;2022-11-30T11:53:18;101389.27;;;24.45;25.85
37710;BME280;60223;34.854;-92.408;2022-11-30T11:55:41;101390.21;;;24.12;25.94
37710;BME280;60223;34.854;-92.408;2022-11-30T11:58:11;101393.01;;;23.94;26.05
37710;BME280;60223;34.854;-92.408;2022-11-30T12:00:33;101396.25;;;23.82;26.60
37710;BME280;60223;34.854;-92.408;2022-11-30T12:03:00;101400.27;;;23.91;26.05
37710;BME280;60223;34.854;-92.408;2022-11-30T12:05:26;101406.91;;;23.92;26.24
37710;BME280;60223;34.854;-92.408;2022-11-30T12:07:56;101408.89;;;23.38;26.61
37710;BME280;60223;34.854;-92.408;2022-11-30T12:10:24;101418.20;;;23.27;26.95
37710;BME280;60223;34.854;-92.408;2022-11-30T12:12:39;101429.42;;;23.19;26.67
37710;BME280;60223;34.854;-92.408;2022-11-30T12:15:07;101434.31;;;23.86;26.41
37710;BME280;60223;34.854;-92.408;2022-11-30T12:17:44;101445.11;;;23.67;26.34
37710;BME280;60223;34.854;-92.408;2022-11-30T12:20:04;101453.51;;;23.66;26.33
37710;BME280;60223;34.854;-92.408;2022-11-30T12:24:56;101466.97;;;24.15;25.76
37710;BME280;60223;34.854;-92.408;2022-11-30T12:27:21;101478.81;;;24.24;25.62
37710;BME280;60223;34.854;-92.408;2022-11-30T12:29:46;101489.11;;;24.58;25.47
37710;BME280;60223;34.854;-92.408;2022-11-30T12:32:15;101494.89;;;24.52;25.52
37710;BME280;60223;34.854;-92.408;2022-11-30T12:34:36;101503.04;;;24.23;25.55
37710;BME280;60223;34.854;-92.408;2022-11-30T12:36:58;101506.37;;;24.11;25.64
37710;BME280;60223;34.854;-92.408;2022-11-30T12:39:27;101518.34;;;24.05;25.66
37710;BME280;60223;34.854;-92.408;2022-11-30T12:41:49;101524.96;;;22.34;27.23
37710;BME280;60223;34.854;-92.408;2022-11-30T12:46:39;101554.81;;;23.87;25.98
37710;BME280;60223;34.854;-92.408;2022-11-30T12:49:15;101549.54;;;23.88;26.02
37710;BME280;60223;34.854;-92.408;2022-11-30T12:51:32;101562.25;;;23.87;26.25
37710;BME280;60223;34.854;-92.408;2022-11-30T13:15:42;101628.57;;;24.04;25.41
37710;BME280;60223;34.854;-92.408;2022-11-30T13:18:10;101630.32;;;24.00;25.43
37710;BME280;60223;34.854;-92.408;2022-11-30T13:20:37;101631.63;;;23.71;25.66
37710;BME280;60223;34.854;-92.408;2022-11-30T13:23:02;101636.73;;;21.79;28.03
37710;BME280;60223;34.854;-92.408;2022-11-30T13:25:29;101636.63;;;24.16;25.88